createdAt,value
2022-09-12T00:00:45.301Z,99.90
2022-09-12T00:03:12.419Z,99.90
2022-09-12T00:05:44.390Z,99.90
2022-09-12T00:08:12.575Z,99.90
2022-09-12T00:10:42.052Z,99.90
2022-09-12T00:13:10.133Z,99.90
2022-09-12T00:15:40.402Z,99.90
2022-09-12T00:18:09.575Z,99.90
2022-09-12T00:20:41.157Z,99.90
2022-09-12T00:23:08.220Z,99.90
2022-09-12T00:25:35.346Z,99.90
2022-09-12T00:28:02.656Z,99.90
2022-09-12T00:30:29.684Z,99.90
2022-09-12T00:32:56.666Z,99.90
2022-09-12T00:35:23.768Z,99.90
2022-09-12T00:37:50.738Z,99.90
2022-09-12T00:40:18.120Z,99.90
2022-09-12T00:42:45.100Z,99.90
2022-09-12T00:45:23.295Z,99.90
2022-09-12T00:47:50.608Z,99.90
2022-09-12T00:50:18.612Z,99.90
2022-09-12T00:52:58.655Z,99.90
2022-09-12T00:55:32.276Z,99.90
2022-09-12T00:58:05.845Z,99.90
2022-09-12T01:00:33.005Z,99.90
2022-09-12T01:03:02.124Z,99.90
2022-09-12T01:05:30.110Z,99.90
2022-09-12T01:07:57.616Z,99.90
2022-09-12T01:10:24.597Z,99.90
2022-09-12T01:12:51.729Z,99.90
2022-09-12T01:15:18.916Z,99.90
2022-09-12T01:17:59.560Z,99.90
2022-09-12T01:20:46.542Z,99.90
2022-09-12T01:23:22.090Z,99.90
2022-09-12T01:26:08.113Z,99.90
2022-09-12T01:28:35.135Z,99.90
2022-09-12T01:31:14.303Z,99.90
2022-09-12T01:34:04.771Z,99.90
2022-09-12T01:36:55.195Z,99.90
2022-09-12T01:39:35.914Z,99.90
2022-09-12T01:42:13.833Z,99.90
2022-09-12T01:45:00.378Z,99.90
2022-09-12T01:47:37.692Z,99.90
2022-09-12T01:50:10.431Z,99.90
2022-09-12T01:52:43.343Z,99.90
2022-09-12T01:55:18.286Z,99.90
2022-09-12T01:57:52.795Z,99.90
2022-09-12T02:00:20.539Z,99.90
2022-09-12T02:02:58.059Z,99.90
2022-09-12T02:05:39.336Z,99.90
2022-09-12T02:08:12.061Z,99.90
2022-09-12T02:10:59.348Z,99.90
2022-09-12T02:13:44.740Z,99.90
2022-09-12T02:16:19.014Z,99.90
2022-09-12T02:18:52.278Z,99.90
2022-09-12T02:21:22.625Z,99.90
2022-09-12T02:23:55.359Z,99.90
2022-09-12T02:26:29.630Z,99.90
2022-09-12T02:28:57.552Z,99.90
2022-09-12T02:31:30.323Z,99.90
2022-09-12T02:33:57.352Z,99.90
2022-09-12T02:36:33.531Z,99.90
2022-09-12T02:39:01.469Z,99.90
2022-09-12T02:41:29.015Z,99.90
2022-09-12T02:43:56.255Z,99.90
2022-09-12T02:46:29.027Z,99.90
2022-09-12T02:48:56.817Z,99.90
2022-09-12T02:51:24.189Z,99.90
2022-09-12T02:53:51.503Z,99.90
2022-09-12T02:56:25.714Z,99.90
2022-09-12T02:58:54.593Z,99.90
2022-09-12T03:01:34.877Z,99.90
2022-09-12T03:04:23.000Z,99.90
2022-09-12T03:07:05.789Z,99.90
2022-09-12T03:09:32.796Z,99.90
2022-09-12T03:12:17.157Z,99.90
2022-09-12T03:14:51.778Z,99.90
2022-09-12T03:17:38.807Z,99.90
2022-09-12T03:20:10.903Z,99.90
2022-09-12T03:22:49.298Z,99.90
2022-09-12T03:25:28.392Z,99.90
2022-09-12T03:28:06.236Z,99.90
2022-09-12T03:30:43.194Z,99.90
2022-09-12T03:33:17.171Z,99.90
2022-09-12T03:35:45.382Z,99.90
2022-09-12T03:38:12.853Z,99.90
2022-09-12T03:40:40.212Z,99.90
2022-09-12T03:43:08.781Z,99.90
2022-09-12T03:45:36.992Z,99.90
2022-09-12T03:48:05.267Z,99.90
2022-09-12T03:50:32.690Z,99.90
2022-09-12T03:53:00.526Z,99.90
2022-09-12T03:55:27.802Z,99.90
2022-09-12T03:57:55.524Z,99.90
2022-09-12T04:00:23.321Z,99.90
2022-09-12T04:02:54.384Z,99.90
2022-09-12T04:05:21.420Z,99.90
2022-09-12T04:07:48.751Z,99.90
2022-09-12T04:10:16.378Z,99.90
2022-09-12T04:12:43.992Z,99.90
2022-09-12T04:15:11.324Z,99.90
2022-09-12T04:17:38.362Z,99.90
2022-09-12T04:20:06.312Z,99.90
2022-09-12T04:22:33.781Z,99.90
2022-09-12T04:25:01.043Z,99.90
2022-09-12T04:27:28.755Z,99.90
2022-09-12T04:29:56.439Z,99.90
2022-09-12T04:32:23.582Z,99.90
2022-09-12T04:34:52.385Z,99.90
2022-09-12T04:37:19.590Z,99.90
2022-09-12T04:39:49.313Z,99.90
2022-09-12T04:42:16.796Z,99.90
2022-09-12T04:44:43.933Z,99.90
2022-09-12T04:47:11.034Z,99.90
2022-09-12T04:49:38.057Z,99.90
2022-09-12T04:52:05.349Z,99.90
2022-09-12T04:54:32.757Z,99.90
2022-09-12T04:57:00.129Z,99.90
2022-09-12T04:59:27.772Z,99.90
2022-09-12T05:01:55.164Z,99.90
2022-09-12T05:04:22.260Z,99.90
2022-09-12T05:06:49.670Z,99.90
2022-09-12T05:09:16.750Z,99.90
2022-09-12T05:12:04.263Z,99.90
2022-09-12T05:14:33.166Z,99.90
2022-09-12T05:17:01.869Z,99.90
2022-09-12T05:19:30.943Z,99.90
2022-09-12T05:21:59.050Z,99.90
2022-09-12T05:24:26.157Z,99.90
2022-09-12T05:26:53.316Z,99.90
2022-09-12T05:29:20.597Z,99.90
2022-09-12T05:31:50.208Z,99.90
2022-09-12T05:34:17.265Z,99.90
2022-09-12T05:36:44.448Z,99.90
2022-09-12T05:39:11.547Z,99.90
2022-09-12T05:41:38.652Z,99.90
2022-09-12T05:44:07.502Z,99.90
2022-09-12T05:46:39.878Z,99.90
2022-09-12T05:49:10.081Z,99.90
2022-09-12T05:51:40.000Z,99.90
2022-09-12T05:54:09.024Z,99.90
2022-09-12T05:56:39.685Z,99.90
2022-09-12T05:59:13.058Z,99.90
2022-09-12T06:01:40.833Z,99.90
2022-09-12T06:04:08.221Z,99.90
2022-09-12T06:06:41.638Z,99.90
2022-09-12T06:09:09.541Z,99.90
2022-09-12T06:11:40.302Z,99.90
2022-09-12T06:14:09.157Z,99.90
2022-09-12T06:16:37.294Z,99.90
2022-09-12T06:19:08.188Z,99.90
2022-09-12T06:21:35.508Z,99.90
2022-09-12T06:24:02.870Z,99.90
2022-09-12T06:26:30.663Z,99.90
2022-09-12T06:29:00.808Z,99.90
2022-09-12T06:31:31.560Z,99.90
2022-09-12T06:34:01.475Z,99.90
2022-09-12T06:36:32.188Z,99.90
2022-09-12T06:39:02.245Z,94.80
2022-09-12T06:41:31.443Z,90.10
2022-09-12T06:43:59.938Z,83.00
2022-09-12T06:46:27.915Z,75.60
2022-09-12T06:48:57.092Z,70.30
2022-09-12T06:51:25.010Z,70.70
2022-09-12T06:53:54.490Z,67.30
2022-09-12T06:56:23.357Z,66.80
2022-09-12T06:58:51.687Z,67.60
2022-09-12T07:01:21.459Z,68.30
2022-09-12T07:03:51.136Z,67.20
2022-09-12T07:06:20.622Z,66.00
2022-09-12T07:08:48.655Z,65.50
2022-09-12T07:11:15.676Z,65.20
2022-09-12T07:13:45.702Z,65.80
2022-09-12T07:16:18.693Z,62.10
2022-09-12T07:18:51.280Z,62.00
2022-09-12T07:21:18.736Z,62.30
2022-09-12T07:23:46.151Z,61.10
2022-09-12T07:26:14.891Z,56.80
2022-09-12T07:28:43.019Z,55.70
2022-09-12T07:31:12.829Z,55.30
2022-09-12T07:33:41.301Z,55.50
2022-09-12T07:36:12.387Z,55.30
2022-09-12T07:38:40.585Z,53.40
2022-09-12T07:41:13.134Z,54.90
2022-09-12T07:43:40.787Z,52.60
2022-09-12T07:46:09.033Z,53.90
2022-09-12T07:48:38.200Z,54.40
2022-09-12T07:51:08.291Z,53.90
2022-09-12T07:53:37.980Z,52.80
2022-09-12T07:56:06.510Z,54.30
2022-09-12T07:58:36.590Z,52.60
2022-09-12T08:01:03.752Z,52.60
2022-09-12T08:03:30.929Z,53.90
2022-09-12T08:06:16.580Z,53.40
2022-09-12T08:08:43.995Z,51.30
2022-09-12T08:11:13.633Z,50.80
2022-09-12T08:13:42.095Z,50.80
2022-09-12T08:16:13.653Z,50.90
2022-09-12T08:18:41.231Z,52.10
2022-09-12T08:21:13.824Z,52.00
2022-09-12T08:23:42.222Z,51.60
2022-09-12T08:26:11.038Z,52.70
2022-09-12T08:28:40.509Z,51.70
2022-09-12T08:31:11.240Z,52.40
2022-09-12T08:33:38.551Z,52.50
2022-09-12T08:36:06.548Z,53.30
2022-09-12T08:38:34.836Z,56.90
2022-09-12T08:41:06.315Z,56.90
2022-09-12T08:43:41.310Z,59.20
2022-09-12T08:46:18.586Z,61.10
2022-09-12T08:48:50.152Z,65.00
2022-09-12T08:51:20.028Z,65.10
2022-09-12T08:53:50.722Z,64.10
2022-09-12T08:56:17.838Z,64.10
2022-09-12T08:58:46.660Z,63.20
2022-09-12T09:01:21.436Z,66.40
2022-09-12T09:04:03.225Z,66.00
2022-09-12T09:06:53.464Z,62.20
2022-09-12T09:10:00.462Z,62.50
2022-09-12T09:13:01.043Z,62.10
2022-09-12T09:15:32.676Z,62.20
2022-09-12T09:18:04.310Z,65.70
2022-09-12T09:20:42.679Z,66.00
2022-09-12T09:23:22.412Z,64.10
2022-09-12T09:25:59.917Z,64.80
2022-09-12T09:28:37.864Z,63.60
2022-09-12T09:31:07.004Z,63.80
2022-09-12T09:33:35.614Z,66.10
2022-09-12T09:36:08.174Z,64.10
2022-09-12T09:39:00.821Z,66.30
2022-09-12T09:41:58.205Z,65.80
2022-09-12T09:44:28.369Z,64.60
2022-09-12T09:46:58.253Z,62.00
2022-09-12T09:49:28.840Z,63.90
2022-09-12T09:51:58.878Z,63.60
2022-09-12T09:54:53.275Z,62.30
2022-09-12T09:57:35.899Z,62.10
2022-09-12T10:00:27.218Z,64.20
2022-09-12T10:03:13.783Z,64.20
2022-09-12T10:05:51.439Z,64.80
2022-09-12T10:08:23.207Z,63.80
2022-09-12T10:10:55.485Z,65.60
2022-09-12T10:13:29.002Z,63.20
2022-09-12T10:15:59.043Z,64.50
2022-09-12T10:18:35.740Z,64.20
2022-09-12T10:21:12.625Z,63.50
2022-09-12T10:23:41.397Z,66.50
2022-09-12T10:26:12.648Z,61.40
2022-09-12T10:28:45.537Z,60.60
2022-09-12T10:31:24.329Z,61.60
2022-09-12T10:33:52.975Z,60.10
2022-09-12T10:36:21.179Z,62.60
2022-09-12T10:38:52.798Z,65.20
2022-09-12T10:41:21.876Z,61.30
2022-09-12T10:43:49.857Z,62.40
2022-09-12T10:46:17.974Z,59.70
2022-09-12T10:48:47.138Z,61.30
2022-09-12T10:51:29.704Z,62.60
2022-09-12T10:54:02.617Z,64.40
2022-09-12T10:56:33.693Z,64.90
2022-09-12T10:59:08.415Z,64.10
2022-09-12T11:01:42.145Z,61.30
2022-09-12T11:04:30.425Z,65.70
2022-09-12T11:07:25.427Z,62.50
2022-09-12T11:09:56.083Z,62.00
2022-09-12T11:12:31.765Z,61.00
2022-09-12T11:15:11.486Z,61.70
2022-09-12T11:18:05.896Z,60.90
2022-09-12T11:20:41.002Z,62.40
2022-09-12T11:23:12.468Z,62.90
2022-09-12T11:26:02.848Z,65.70
2022-09-12T11:29:05.459Z,67.80
2022-09-12T11:32:12.395Z,63.50
2022-09-12T11:34:59.583Z,64.10
2022-09-12T11:38:07.583Z,62.40
2022-09-12T11:40:43.704Z,62.70
2022-09-12T11:43:23.917Z,64.40
2022-09-12T11:45:53.187Z,64.30
2022-09-12T11:48:37.706Z,63.20
2022-09-12T11:51:07.230Z,65.00
2022-09-12T11:53:39.164Z,60.90
2022-09-12T11:56:14.609Z,60.50
2022-09-12T11:58:45.171Z,63.60
2022-09-12T12:01:17.560Z,60.50
2022-09-12T12:03:47.297Z,65.40
2022-09-12T12:06:26.784Z,65.80
2022-09-12T12:08:54.384Z,60.60
2022-09-12T12:11:43.394Z,61.70
2022-09-12T12:14:25.228Z,66.50
2022-09-12T12:16:52.527Z,63.00
2022-09-12T12:19:19.725Z,59.60
2022-09-12T12:21:49.300Z,58.80
2022-09-12T12:24:21.163Z,60.60
2022-09-12T12:27:00.188Z,59.50
2022-09-12T12:29:44.563Z,60.80
2022-09-12T12:32:11.626Z,60.20
2022-09-12T12:34:40.043Z,63.90
2022-09-12T12:37:27.265Z,62.50
2022-09-12T12:40:04.889Z,61.40
2022-09-12T12:42:34.299Z,62.40
2022-09-12T12:45:04.424Z,64.40
2022-09-12T12:47:42.915Z,63.10
2022-09-12T12:50:19.656Z,64.50
2022-09-12T12:52:54.228Z,62.70
2022-09-12T12:55:27.436Z,63.10
2022-09-12T12:57:56.994Z,61.50
2022-09-12T13:00:39.971Z,61.20
2022-09-12T13:03:11.415Z,64.30
2022-09-12T13:05:39.890Z,67.70
2022-09-12T13:08:24.709Z,69.20
2022-09-12T13:10:58.107Z,64.40
2022-09-12T13:13:32.321Z,63.30
2022-09-12T13:15:59.824Z,62.50
2022-09-12T13:18:33.580Z,59.50
2022-09-12T13:21:18.923Z,59.70
2022-09-12T13:24:02.769Z,60.10
2022-09-12T13:26:35.930Z,61.20
2022-09-12T13:29:22.516Z,60.60
2022-09-12T13:32:00.787Z,59.90
2022-09-12T13:34:34.115Z,61.10
2022-09-12T13:37:16.588Z,62.40
2022-09-12T13:39:51.488Z,61.70
2022-09-12T13:42:27.080Z,60.50
2022-09-12T13:44:59.061Z,60.50
2022-09-12T13:47:33.048Z,60.30
2022-09-12T13:50:01.465Z,61.90
2022-09-12T13:52:32.622Z,61.90
2022-09-12T13:55:00.668Z,59.90
2022-09-12T13:57:32.197Z,63.00
2022-09-12T14:00:01.470Z,62.80
2022-09-12T14:02:29.730Z,63.40
2022-09-12T14:05:13.243Z,60.50
2022-09-12T14:07:52.570Z,59.80
2022-09-12T14:10:28.178Z,58.50
2022-09-12T14:12:56.902Z,59.10
2022-09-12T14:15:30.181Z,61.30
2022-09-12T14:18:01.303Z,61.40
2022-09-12T14:20:32.578Z,58.90
2022-09-12T14:23:03.810Z,60.80
2022-09-12T14:25:41.129Z,59.10
2022-09-12T14:28:13.685Z,65.60
2022-09-12T14:30:41.059Z,65.10
2022-09-12T14:33:11.442Z,63.60
2022-09-12T14:35:43.777Z,63.40
2022-09-12T14:38:22.888Z,63.30
2022-09-12T14:40:59.117Z,58.60
2022-09-12T14:43:30.438Z,58.50
2022-09-12T14:46:32.368Z,57.20
2022-09-12T14:49:09.823Z,58.90
2022-09-12T14:51:52.890Z,58.20
2022-09-12T14:54:37.587Z,59.70
2022-09-12T14:57:19.351Z,61.30
2022-09-12T14:59:46.473Z,64.00
2022-09-12T15:02:15.522Z,60.60
2022-09-12T15:04:45.458Z,63.00
2022-09-12T15:07:15.864Z,62.20
2022-09-12T15:09:47.223Z,61.20
2022-09-12T15:12:14.467Z,61.60
2022-09-12T15:14:41.546Z,62.70
2022-09-12T15:17:08.660Z,61.10
2022-09-12T15:19:35.640Z,61.40
2022-09-12T15:22:02.798Z,66.60
2022-09-12T15:24:29.839Z,62.70
2022-09-12T15:26:57.033Z,62.60
2022-09-12T15:29:24.019Z,63.70
2022-09-12T15:31:51.714Z,64.10
2022-09-12T15:34:19.652Z,63.30
2022-09-12T15:36:46.811Z,64.70
2022-09-12T15:39:13.836Z,64.50
2022-09-12T15:41:41.094Z,64.30
2022-09-12T15:44:12.369Z,64.60
2022-09-12T15:46:42.307Z,65.30
2022-09-12T15:49:09.561Z,66.30
2022-09-12T15:51:36.548Z,67.50
2022-09-12T15:54:04.815Z,66.80
2022-09-12T15:56:31.864Z,67.70
2022-09-12T15:59:00.043Z,69.10
2022-09-12T16:01:29.078Z,68.70
2022-09-12T16:03:56.975Z,68.10
2022-09-12T16:06:24.994Z,68.50
2022-09-12T16:08:52.193Z,69.30
2022-09-12T16:11:23.954Z,69.40
2022-09-12T16:13:53.955Z,68.90
2022-09-12T16:16:21.783Z,70.20
2022-09-12T16:18:49.135Z,74.40
2022-09-12T16:21:16.338Z,75.90
2022-09-12T16:23:44.535Z,75.60
2022-09-12T16:26:11.739Z,76.30
2022-09-12T16:28:39.054Z,76.50
2022-09-12T16:31:07.851Z,76.30
2022-09-12T16:33:35.294Z,79.10
2022-09-12T16:36:12.120Z,78.00
2022-09-12T16:38:45.916Z,77.50
2022-09-12T16:41:14.262Z,78.20
2022-09-12T16:43:42.099Z,81.00
2022-09-12T16:46:14.095Z,80.30
2022-09-12T16:48:51.567Z,84.40
2022-09-12T16:51:21.093Z,88.60
2022-09-12T16:53:48.859Z,91.00
2022-09-12T16:56:16.811Z,91.30
2022-09-12T16:58:44.350Z,87.40
2022-09-12T17:01:14.972Z,87.80
2022-09-12T17:03:43.150Z,86.60
2022-09-12T17:06:13.249Z,88.00
2022-09-12T17:08:42.963Z,89.50
2022-09-12T17:11:12.849Z,88.60
2022-09-12T17:14:03.122Z,89.50
2022-09-12T17:16:29.043Z,90.10
2022-09-12T17:18:56.239Z,91.60
2022-09-12T17:21:23.505Z,93.00
2022-09-12T17:23:51.059Z,92.20
2022-09-12T17:26:18.280Z,92.10
2022-09-12T17:28:45.326Z,92.70
2022-09-12T17:31:14.724Z,93.60
2022-09-12T17:33:42.595Z,94.20
2022-09-12T17:36:15.247Z,96.10
2022-09-12T17:38:43.775Z,97.50
2022-09-12T17:41:16.202Z,98.70
2022-09-12T17:43:55.707Z,99.50
2022-09-12T17:46:25.982Z,99.90
2022-09-12T17:48:55.251Z,99.90
2022-09-12T17:51:25.051Z,99.90
2022-09-12T17:54:02.085Z,99.90
2022-09-12T17:56:31.147Z,99.90
2022-09-12T17:58:59.439Z,99.90
2022-09-12T18:01:47.560Z,99.90
2022-09-12T18:04:15.665Z,99.90
2022-09-12T18:06:48.146Z,99.90
2022-09-12T18:09:19.636Z,99.90
2022-09-12T18:11:48.249Z,99.90
2022-09-12T18:14:17.138Z,99.90
2022-09-12T18:16:45.706Z,99.90
2022-09-12T18:19:13.097Z,99.90
2022-09-12T18:21:40.416Z,99.90
2022-09-12T18:24:07.805Z,99.90
2022-09-12T18:26:35.005Z,99.90
2022-09-12T18:29:02.871Z,99.90
2022-09-12T18:31:31.608Z,99.90
2022-09-12T18:34:01.410Z,99.90
2022-09-12T18:36:30.208Z,99.90
2022-09-12T18:38:59.194Z,99.90
2022-09-12T18:41:29.067Z,99.90
2022-09-12T18:43:58.406Z,99.90
2022-09-12T18:46:26.662Z,99.90
2022-09-12T18:48:57.758Z,99.90
2022-09-12T18:51:31.609Z,99.90
2022-09-12T18:54:03.822Z,99.90
2022-09-12T18:56:34.383Z,99.90
2022-09-12T18:59:03.202Z,99.90
2022-09-12T19:01:34.339Z,99.90
2022-09-12T19:04:04.803Z,99.90
2022-09-12T19:06:34.747Z,99.90
2022-09-12T19:09:07.328Z,99.90
2022-09-12T19:11:36.826Z,99.90
2022-09-12T19:14:04.268Z,99.90
2022-09-12T19:16:32.390Z,99.90
2022-09-12T19:18:59.897Z,99.90
2022-09-12T19:21:30.116Z,99.90
2022-09-12T19:24:00.272Z,99.90
2022-09-12T19:26:28.722Z,99.90
2022-09-12T19:28:56.671Z,99.90
2022-09-12T19:31:24.846Z,99.90
2022-09-12T19:33:52.487Z,99.90
2022-09-12T19:39:09.499Z,99.90
2022-09-12T19:41:37.019Z,99.90
2022-09-12T19:44:05.092Z,99.90
2022-09-12T19:46:32.308Z,99.90
2022-09-12T19:48:59.404Z,99.90
2022-09-12T19:51:26.961Z,99.90
2022-09-12T19:53:55.072Z,99.90
2022-09-12T19:56:22.836Z,99.90
2022-09-12T19:58:55.780Z,99.90
2022-09-12T20:01:30.105Z,99.90
2022-09-12T20:03:58.887Z,99.90
2022-09-12T20:06:26.922Z,99.90
2022-09-12T20:08:54.623Z,99.90
2022-09-12T20:11:23.812Z,99.90
2022-09-12T20:13:51.663Z,99.90
2022-09-12T20:16:22.594Z,99.90
2022-09-12T20:18:55.424Z,99.90
2022-09-12T20:21:25.794Z,99.90
2022-09-12T20:23:53.008Z,99.90
2022-09-12T20:26:20.650Z,99.90
2022-09-12T20:28:48.202Z,99.90
2022-09-12T20:31:16.761Z,99.90
2022-09-12T20:33:49.826Z,99.90
2022-09-12T20:36:20.735Z,99.90
2022-09-12T20:38:51.361Z,99.90
2022-09-12T20:41:19.886Z,99.90
2022-09-12T20:43:51.281Z,99.90
2022-09-12T20:46:21.865Z,99.90
2022-09-12T20:48:50.453Z,99.90
2022-09-12T20:51:18.643Z,99.90
2022-09-12T20:53:46.009Z,99.90
2022-09-12T20:56:14.507Z,99.90
2022-09-12T20:58:44.115Z,99.90
2022-09-12T21:01:12.934Z,99.90
2022-09-12T21:03:40.968Z,99.90
2022-09-12T21:06:09.919Z,99.90
2022-09-12T21:08:37.992Z,99.90
2022-09-12T21:11:05.442Z,99.90
2022-09-12T21:13:33.085Z,99.90
2022-09-12T21:16:00.923Z,99.90
2022-09-12T21:18:28.408Z,99.90
2022-09-12T21:20:56.095Z,99.90
2022-09-12T21:23:25.369Z,99.90
2022-09-12T21:25:52.961Z,99.90
2022-09-12T21:28:21.166Z,99.90
2022-09-12T21:30:49.305Z,99.90
2022-09-12T21:33:17.320Z,99.90
2022-09-12T21:35:44.543Z,99.90
2022-09-12T21:38:11.810Z,99.90
2022-09-12T21:40:38.943Z,99.90
2022-09-12T21:43:10.457Z,99.90
2022-09-12T21:45:40.008Z,99.90
2022-09-12T21:48:07.789Z,99.90
2022-09-12T21:50:34.872Z,99.90
2022-09-12T21:53:02.221Z,99.90
2022-09-12T21:55:29.474Z,99.90
2022-09-12T21:57:57.048Z,99.90
2022-09-12T22:00:24.352Z,99.90
2022-09-12T22:02:51.664Z,99.90
2022-09-12T22:05:19.887Z,99.90
2022-09-12T22:07:47.261Z,99.90
2022-09-12T22:10:15.270Z,99.90
2022-09-12T22:12:46.084Z,99.90
2022-09-12T22:15:38.843Z,99.90
2022-09-12T22:18:01.936Z,99.90
2022-09-12T22:20:28.928Z,99.90
2022-09-12T22:23:16.036Z,99.90
2022-09-12T22:25:43.146Z,99.90
2022-09-12T22:28:10.505Z,99.90
2022-09-12T22:30:38.710Z,99.90
2022-09-12T22:33:05.678Z,99.90
2022-09-12T22:35:32.927Z,99.90
2022-09-12T22:38:00.009Z,99.90
2022-09-12T22:40:27.127Z,99.90
2022-09-12T22:42:54.387Z,99.90
2022-09-12T22:45:21.629Z,99.90
2022-09-12T22:47:48.752Z,99.90
2022-09-12T22:50:16.146Z,99.90
2022-09-12T22:52:43.142Z,99.90
2022-09-12T22:55:10.612Z,99.90
2022-09-12T22:57:37.894Z,99.90
2022-09-12T23:00:08.539Z,99.90
2022-09-12T23:02:35.700Z,99.90
2022-09-12T23:05:02.888Z,99.90
2022-09-12T23:07:29.874Z,99.90
2022-09-12T23:09:57.026Z,99.90
2022-09-12T23:12:24.890Z,99.90
2022-09-12T23:14:52.190Z,99.90
2022-09-12T23:17:19.292Z,99.90
2022-09-12T23:19:46.384Z,99.90
2022-09-12T23:22:13.507Z,99.90
2022-09-12T23:24:40.660Z,99.90
2022-09-12T23:27:08.042Z,99.90
2022-09-12T23:29:35.593Z,99.90
2022-09-12T23:32:04.437Z,99.90
2022-09-12T23:34:31.558Z,99.90
2022-09-12T23:36:58.600Z,99.90
2022-09-12T23:39:25.720Z,99.90
2022-09-12T23:41:53.035Z,99.90
2022-09-12T23:44:20.469Z,99.90
2022-09-12T23:46:47.619Z,99.90
2022-09-12T23:49:14.953Z,99.90
2022-09-12T23:51:42.038Z,99.90
2022-09-12T23:54:09.372Z,99.90
2022-09-12T23:56:36.479Z,99.90
2022-09-12T23:59:03.666Z,99.90
